Time;durP1;ratioP1;P1;durP2;ratioP2;P2;SDS_P1;SDS_P2;PMS_P1;PMS_P2;Temp;Humidity;BMP_temperature;BMP_pressure;BME280_temperature;BME280_humidity;BME280_pressure;Samples;Min_cycle;Max_cycle;Signal;HPM_P1;HPM_P2
2022/10/06 00:00:46;;;;;;;390.17;171.50;;;;;;;;;;5006118;28;20203;-54
2022/10/06 00:03:12;;;;;;;364.73;161.37;;;;;;;;;;5010990;28;20729;-52
2022/10/06 00:05:38;;;;;;;418.20;191.87;;;;;;;;;;5006768;28;20281;-53
2022/10/06 00:08:04;;;;;;;424.90;178.93;;;;;;;;;;5005541;28;20239;-52
2022/10/06 00:10:30;;;;;;;419.07;176.60;;;14.50;99.90;;;;;;5012530;28;20801;-52
2022/10/06 00:12:56;;;;;;;379.90;169.57;;;14.50;99.90;;;;;;5008537;28;20271;-52
2022/10/06 00:15:26;;;;;;;348.60;167.33;;;14.40;99.90;;;;;;4987354;28;20731;-52
2022/10/06 00:17:52;;;;;;;365.33;175.37;;;;;;;;;;5006500;28;20693;-53
2022/10/06 00:20:18;;;;;;;366.03;164.40;;;;;;;;;;5007549;28;20313;-53
2022/10/06 00:22:46;;;;;;;351.47;163.27;;;14.40;99.90;;;;;;5007484;28;20696;-54
2022/10/06 00:25:14;;;;;;;341.53;161.50;;;14.30;99.90;;;;;;5005145;28;20224;-53
2022/10/06 00:27:42;;;;;;;343.63;161.07;;;14.40;99.90;;;;;;5014315;28;20204;-52
2022/10/06 00:30:11;;;;;;;405.63;178.43;;;14.40;99.90;;;;;;5013531;28;20230;-52
2022/10/06 00:32:37;;;;;;;366.80;165.37;;;14.40;99.90;;;;;;5010044;28;20212;-53
2022/10/06 00:35:03;;;;;;;338.30;159.30;;;14.50;99.90;;;;;;5013087;28;20692;-52
2022/10/06 00:37:34;;;;;;;419.30;178.67;;;14.50;99.90;;;;;;5015592;28;20274;-53
2022/10/06 00:40:00;;;;;;;372.37;165.07;;;14.50;99.90;;;;;;5004461;28;20285;-54
2022/10/06 00:42:29;;;;;;;332.13;149.50;;;14.40;99.90;;;;;;5010336;28;20625;-52
2022/10/06 00:44:58;;;;;;;390.50;181.90;;;12.60;99.90;;;;;;5010174;28;20228;-53
2022/10/06 00:47:28;;;;;;;358.33;169.97;;;14.70;99.90;;;;;;5003107;28;20317;-53
2022/10/06 00:49:54;;;;;;;343.87;154.57;;;16.20;99.90;;;;;;5012219;28;20350;-53
2022/10/06 00:52:23;;;;;;;428.03;180.80;;;14.50;99.90;;;;;;5004289;28;20224;-52
2022/10/06 00:54:50;;;;;;;363.33;163.67;;;14.50;99.90;;;;;;5019443;28;20581;-52
2022/10/06 00:57:16;;;;;;;368.03;161.23;;;;;;;;;;5006298;28;20655;-52
2022/10/06 00:59:42;;;;;;;333.87;152.00;;;14.70;99.90;;;;;;5012339;28;20220;-54
2022/10/06 01:02:19;;;;;;;430.10;182.57;;;14.70;99.90;;;;;;4997785;28;20223;-51
2022/10/06 01:04:48;;;;;;;339.50;161.50;;;14.80;99.90;;;;;;5015686;28;20277;-53
2022/10/06 01:07:16;;;;;;;339.13;153.20;;;14.70;99.90;;;;;;5014131;28;20366;-53
2022/10/06 01:09:42;;;;;;;443.93;182.13;;;;;;;;;;5003959;28;20196;-53
2022/10/06 01:12:08;;;;;;;356.03;159.13;;;;;;;;;;4983335;28;20248;-52
2022/10/06 01:14:36;;;;;;;389.53;174.80;;;15.10;99.90;;;;;;5011641;28;20741;-54
2022/10/06 01:17:10;;;;;;;382.70;179.33;;;14.70;99.90;;;;;;5003056;28;20692;-54
2022/10/06 01:20:01;;;;;;;316.13;149.43;;;14.70;99.90;;;;;;5007628;28;20254;-53
2022/10/06 01:22:34;;;;;;;448.20;191.17;;;14.80;99.90;;;;;;5005164;28;20238;-52
2022/10/06 01:25:01;;;;;;;373.83;176.17;;;15.20;99.90;;;;;;5002847;28;21697;-53
2022/10/06 01:27:29;;;;;;;303.37;147.57;;;14.80;99.90;;;;;;5019760;28;20814;-53
2022/10/06 01:29:56;;;;;;;349.53;164.90;;;14.90;99.90;;;;;;5014130;28;20330;-54
2022/10/06 01:32:23;;;;;;;356.77;167.23;;;14.90;99.90;;;;;;4992070;28;20217;-52
2022/10/06 01:34:49;;;;;;;371.20;178.67;;;14.90;99.90;;;;;;4995140;28;20212;-53
2022/10/06 01:37:15;;;;;;;353.60;170.03;;;15.00;99.90;;;;;;5009459;28;20258;-54
2022/10/06 01:39:42;;;;;;;364.93;168.63;;;15.00;99.90;;;;;;5006759;28;20600;-53
2022/10/06 01:42:08;;;;;;;367.03;166.73;;;;;;;;;;5004828;28;20185;-52
2022/10/06 01:44:34;;;;;;;374.83;179.20;;;;;;;;;;5001822;28;20216;-52
2022/10/06 01:47:00;;;;;;;389.23;185.00;;;;;;;;;;5008370;28;20223;-52
2022/10/06 01:49:25;;;;;;;382.03;182.33;;;15.10;99.90;;;;;;5003387;28;22365;-55
2022/10/06 01:51:51;;;;;;;363.47;173.87;;;;;;;;;;4982275;28;20642;-53
2022/10/06 01:54:17;;;;;;;368.20;174.77;;;;;;;;;;5005891;28;20200;-54
2022/10/06 01:56:42;;;;;;;342.65;167.13;;;15.40;99.90;;;;;;5015045;28;20297;-54
2022/10/06 01:59:08;;;;;;;346.90;170.53;;;15.30;99.90;;;;;;5017551;28;20221;-55
2022/10/06 02:01:34;;;;;;;379.00;169.83;;;;;;;;;;5014088;28;20274;-53
2022/10/06 02:04:00;;;;;;;328.53;152.27;;;15.50;99.90;;;;;;5013703;28;20227;-54
2022/10/06 02:06:26;;;;;;;339.08;162.73;;;;;;;;;;5018273;28;20688;-54
2022/10/06 02:08:51;;;;;;;330.77;153.43;;;;;;;;;;5015456;28;20212;-54
2022/10/06 02:11:18;;;;;;;330.30;152.00;;;;;;;;;;5001022;28;20220;-53
2022/10/06 02:13:44;;;;;;;326.17;155.27;;;15.70;99.90;;;;;;4999551;28;20235;-52
2022/10/06 02:16:12;;;;;;;361.83;173.03;;;15.60;99.90;;;;;;4999869;28;20235;-54
2022/10/06 02:18:38;;;;;;;314.63;155.03;;;15.60;99.90;;;;;;5022145;28;20214;-54
2022/10/06 02:21:04;;;;;;;407.47;180.43;;;;;;;;;;5016499;28;20200;-54
2022/10/06 02:23:30;;;;;;;351.47;161.77;;;15.70;99.90;;;;;;4994897;28;20229;-55
2022/10/06 02:26:05;;;;;;;323.47;156.17;;;15.80;99.90;;;;;;4999530;28;20303;-54
2022/10/06 02:28:31;;;;;;;357.10;165.57;;;15.70;99.90;;;;;;4999357;28;20246;-52
2022/10/06 02:31:07;;;;;;;420.57;184.50;;;15.80;99.90;;;;;;5003695;28;20239;-55
2022/10/06 02:33:34;;;;;;;413.87;179.50;;;15.70;99.90;;;;;;5010802;28;21457;-54
2022/10/06 02:36:01;;;;;;;355.90;168.97;;;15.90;99.90;;;;;;5007897;28;20216;-55
2022/10/06 02:38:27;;;;;;;368.67;165.93;;;15.80;99.90;;;;;;5003635;28;20216;-52
2022/10/06 02:40:53;;;;;;;410.87;185.63;;;;;;;;;;5009114;28;20215;-53
2022/10/06 02:43:20;;;;;;;450.20;201.40;;;15.80;99.90;;;;;;5009058;28;20221;-54
2022/10/06 02:45:53;;;;;;;399.40;192.77;;;15.70;99.90;;;;;;5006246;28;20365;-53
2022/10/06 02:48:18;;;;;;;391.50;185.60;;;15.60;99.90;;;;;;5010885;28;20215;-54
2022/10/06 02:50:44;;;;;;;398.07;180.23;;;;;;;;;;5008361;28;20210;-53
2022/10/06 02:53:10;;;;;;;428.90;183.17;;;15.70;99.90;;;;;;4987500;28;20879;-55
2022/10/06 02:55:35;;;;;;;411.10;200.40;;;15.60;99.90;;;;;;4986479;28;20474;-52
2022/10/06 02:58:02;;;;;;;377.93;178.40;;;15.70;99.90;;;;;;4987560;28;20248;-54
2022/10/06 03:00:27;;;;;;;330.38;155.55;;;15.40;99.90;;;;;;5004547;28;20177;-55
2022/10/06 03:02:53;;;;;;;394.00;179.97;;;;;;;;;;5009612;28;20235;-54
2022/10/06 03:05:19;;;;;;;396.47;193.27;;;15.50;99.90;;;;;;5011309;28;20216;-54
2022/10/06 03:07:45;;;;;;;434.40;193.90;;;;;;;;;;5007398;28;20235;-54
2022/10/06 03:10:11;;;;;;;329.70;164.93;;;;;;;;;;5013634;28;20299;-54
2022/10/06 03:12:37;;;;;;;335.80;163.93;;;15.30;99.90;;;;;;5012977;28;20220;-54
2022/10/06 03:15:03;;;;;;;389.92;198.20;;;;;;;;;;5021269;28;20254;-52
2022/10/06 03:17:28;;;;;;;392.93;191.73;;;15.30;99.90;;;;;;5010467;28;20212;-54
2022/10/06 03:19:55;;;;;;;375.87;174.03;;;;;;;;;;5014399;28;20215;-53
2022/10/06 03:22:21;;;;;;;447.63;199.00;;;;;;;;;;5004900;28;20211;-52
2022/10/06 03:24:47;;;;;;;363.40;180.70;;;15.00;99.90;;;;;;5009767;28;20274;-54
2022/10/06 03:27:13;;;;;;;398.60;193.97;;;;;;;;;;5009912;28;20469;-53
2022/10/06 03:29:39;;;;;;;395.67;186.77;;;;;;;;;;5012128;28;20286;-52
2022/10/06 03:32:05;;;;;;;376.97;174.57;;;;;;;;;;5007983;28;21132;-52
2022/10/06 03:34:30;;;;;;;418.30;200.57;;;;;;;;;;5005196;28;20270;-52
2022/10/06 03:36:56;;;;;;;394.83;185.97;;;;;;;;;;5009831;28;20223;-52
2022/10/06 03:39:22;;;;;;;355.97;166.83;;;15.40;99.90;;;;;;5009619;28;20189;-54
2022/10/06 03:41:48;;;;;;;379.17;174.80;;;;;;;;;;5018150;28;20809;-53
2022/10/06 03:44:13;;;;;;;432.37;191.30;;;15.50;99.90;;;;;;5004700;28;20295;-54
2022/10/06 03:46:39;;;;;;;380.07;182.80;;;15.20;99.90;;;;;;5007864;28;20233;-53
2022/10/06 03:49:05;;;;;;;326.57;155.27;;;;;;;;;;5017263;28;20278;-53
2022/10/06 03:51:34;;;;;;;397.17;180.87;;;15.30;99.90;;;;;;5009174;28;20194;-52
2022/10/06 03:54:00;;;;;;;439.13;194.30;;;;;;;;;;5005408;28;20224;-52
2022/10/06 03:56:34;;;;;;;365.97;179.93;;;15.20;99.90;;;;;;5003829;28;20243;-53
2022/10/06 03:59:03;;;;;;;352.97;178.63;;;15.30;99.90;;;;;;4995976;28;20692;-53
2022/10/06 04:01:37;;;;;;;357.73;169.85;;;15.60;99.90;;;;;;4997941;28;20212;-54
2022/10/06 04:04:03;;;;;;;362.73;167.37;;;15.30;99.90;;;;;;5009746;28;20215;-55
2022/10/06 04:06:31;;;;;;;372.63;175.17;;;15.50;99.90;;;;;;5004462;28;20223;-55
2022/10/06 04:08:57;;;;;;;375.43;172.53;;;;;;;;;;5005231;28;20605;-53
2022/10/06 04:11:23;;;;;;;421.60;188.03;;;;;;;;;;5007172;28;20217;-56
2022/10/06 04:13:56;;;;;;;415.57;184.33;;;15.30;99.90;;;;;;4989659;28;20209;-54
2022/10/06 04:16:24;;;;;;;363.40;180.17;;;15.20;99.90;;;;;;4983655;28;20319;-54
2022/10/06 04:18:52;;;;;;;354.80;170.67;;;15.30;99.90;;;;;;4989837;28;20279;-54
2022/10/06 04:21:18;;;;;;;376.40;173.00;;;15.60;99.90;;;;;;5011037;28;20196;-55
2022/10/06 04:23:44;;;;;;;419.87;189.47;;;15.40;99.90;;;;;;5002321;28;20258;-55
2022/10/06 04:26:13;;;;;;;380.98;188.30;;;15.40;99.90;;;;;;5008368;28;20627;-54
2022/10/06 04:28:39;;;;;;;374.03;184.00;;;15.60;99.90;;;;;;5009309;28;20255;-54
2022/10/06 04:31:18;;;;;;;402.87;187.90;;;15.50;99.90;;;;;;5004028;28;20219;-53
2022/10/06 04:33:45;;;;;;;368.63;176.53;;;15.70;99.90;;;;;;5014524;28;21019;-53
2022/10/06 04:36:14;;;;;;;402.33;183.07;;;15.60;99.90;;;;;;5004299;28;20219;-55
2022/10/06 04:38:39;;;;;;;395.10;181.17;;;15.70;99.90;;;;;;5005353;28;20689;-54
2022/10/06 04:41:16;;;;;;;383.33;183.57;;;15.70;99.90;;;;;;5007141;28;20216;-55
2022/10/06 04:43:42;;;;;;;394.07;186.97;;;;;;;;;;5007798;28;20254;-53
2022/10/06 04:46:08;;;;;;;391.90;194.13;;;15.70;99.90;;;;;;5003644;28;20228;-52
2022/10/06 04:48:34;;;;;;;352.20;169.00;;;;;;;;;;5008636;28;20177;-53
2022/10/06 04:51:06;;;;;;;344.50;171.43;;;16.00;99.90;;;;;;5010073;28;20223;-55
2022/10/06 04:53:32;;;;;;;348.53;173.43;;;;;;;;;;5005127;28;21144;-55
2022/10/06 04:55:58;;;;;;;389.83;193.40;;;;;;;;;;5000383;28;20704;-55
2022/10/06 04:58:24;;;;;;;394.60;194.13;;;15.80;99.90;;;;;;5017589;28;20231;-54
2022/10/06 05:00:50;;;;;;;367.50;181.03;;;15.90;99.90;;;;;;5017731;28;20192;-54
2022/10/06 05:03:16;;;;;;;364.83;178.27;;;;;;;;;;5007582;28;20184;-53
2022/10/06 05:05:42;;;;;;;406.00;199.93;;;;;;;;;;5013500;28;20966;-53
2022/10/06 05:08:08;;;;;;;342.33;171.87;;;;;;;;;;5018252;28;20226;-53
2022/10/06 05:10:34;;;;;;;381.17;187.50;;;;;;;;;;5009534;28;20216;-53
2022/10/06 05:12:59;;;;;;;382.57;190.97;;;16.00;99.90;;;;;;5016250;28;20251;-55
2022/10/06 05:15:27;;;;;;;409.90;200.73;;;;;;;;;;5011127;28;20270;-55
2022/10/06 05:17:52;;;;;;;368.83;172.10;;;;;;;;;;5013134;28;20214;-54
2022/10/06 05:20:21;;;;;;;391.43;184.03;;;;;;;;;;5015102;28;20220;-53
2022/10/06 05:22:47;;;;;;;396.00;183.77;;;15.90;99.90;;;;;;4992749;28;20833;-56
2022/10/06 05:25:13;;;;;;;439.73;216.10;;;16.10;99.90;;;;;;4994918;28;20219;-55
2022/10/06 05:27:38;;;;;;;402.83;196.83;;;;;;;;;;5010771;28;21051;-54
2022/10/06 05:30:05;;;;;;;394.03;183.13;;;;;;;;;;5014123;28;20188;-54
2022/10/06 05:32:30;;;;;;;375.27;177.80;;;;;;;;;;5002514;28;20220;-54
2022/10/06 05:34:56;;;;;;;387.17;188.83;;;;;;;;;;5006292;28;20770;-54
2022/10/06 05:37:24;;;;;;;416.07;206.67;;;;;;;;;;5005604;28;20208;-54
2022/10/06 05:39:50;;;;;;;398.37;188.93;;;;;;;;;;4996015;28;20777;-53
2022/10/06 05:42:15;;;;;;;423.00;200.23;;;;;;;;;;5004535;28;20180;-53
2022/10/06 05:44:41;;;;;;;423.40;209.40;;;;;;;;;;4983522;28;20737;-53
2022/10/06 05:47:07;;;;;;;378.52;183.93;;;;;;;;;;4974966;28;20217;-54
2022/10/06 05:49:33;;;;;;;425.10;194.93;;;;;;;;;;5000463;28;20216;-55
2022/10/06 05:51:59;;;;;;;388.90;181.27;;;16.10;32.80;;;;;;4996095;28;20228;-56
2022/10/06 05:54:24;;;;;;;394.00;178.43;;;16.50;15.10;;;;;;4999702;28;20258;-56
2022/10/06 05:56:50;;;;;;;361.85;177.77;;;;;;;;;;4999416;28;22008;-54
2022/10/06 05:59:16;;;;;;;344.10;163.43;;;;;;;;;;4998968;28;20212;-53
2022/10/06 06:01:42;;;;;;;428.47;197.13;;;16.10;1.00;;;;;;5001935;28;20244;-55
2022/10/06 06:04:10;;;;;;;349.10;160.45;;;16.10;1.00;;;;;;4998209;28;20947;-54
2022/10/06 06:06:47;;;;;;;385.33;183.30;;;16.20;1.00;;;;;;4994405;28;20307;-53
2022/10/06 06:09:17;;;;;;;372.53;168.80;;;16.30;1.00;;;;;;4998959;28;20176;-55
2022/10/06 06:11:45;;;;;;;369.40;171.63;;;16.30;1.00;;;;;;5024053;28;20216;-56
2022/10/06 06:14:13;;;;;;;351.00;165.27;;;16.20;1.00;;;;;;5005717;28;20212;-55
2022/10/06 06:16:40;;;;;;;439.55;195.75;;;16.30;1.00;;;;;;5000987;28;20224;-55
2022/10/06 06:19:07;;;;;;;346.80;164.00;;;16.30;1.00;;;;;;5006482;28;20727;-57
2022/10/06 06:21:33;;;;;;;434.67;213.88;;;;;;;;;;4999639;28;20195;-54
2022/10/06 06:23:59;;;;;;;425.00;204.73;;;16.30;1.00;;;;;;4977161;28;21672;-55
2022/10/06 06:26:27;;;;;;;427.27;201.53;;;16.30;1.00;;;;;;4983932;28;20236;-55
2022/10/06 06:29:00;;;;;;;400.13;194.63;;;16.30;1.00;;;;;;5000868;28;20208;-55
2022/10/06 06:31:28;;;;;;;391.23;188.23;;;16.30;99.90;;;;;;5006474;28;20216;-55
2022/10/06 06:33:55;;;;;;;371.37;187.33;;;16.40;1.00;;;;;;5008755;28;20237;-56
2022/10/06 06:36:34;;;;;;;366.33;180.98;;;16.30;99.90;;;;;;5009580;28;20261;-54
2022/10/06 06:39:03;;;;;;;422.70;205.77;;;17.30;99.90;;;;;;4999827;28;23385;-54
2022/10/06 06:41:31;;;;;;;396.57;199.47;;;16.30;66.90;;;;;;5007777;28;20680;-55
2022/10/06 06:43:58;;;;;;;357.23;180.63;;;;;;;;;;5015204;28;20208;-54
2022/10/06 06:46:26;;;;;;;365.57;180.00;;;16.30;1.00;;;;;;4999311;28;20228;-54
2022/10/06 06:48:55;;;;;;;367.60;185.00;;;16.30;1.00;;;;;;5005633;28;20219;-52
2022/10/06 06:51:22;;;;;;;302.57;156.13;;;16.50;99.90;;;;;;5021147;28;20516;-52
2022/10/06 06:53:49;;;;;;;313.45;156.23;;;16.30;99.90;;;;;;5031485;28;20655;-53
2022/10/06 06:56:15;;;;;;;306.38;158.95;;;16.30;99.90;;;;;;5026018;28;20296;-53
2022/10/06 06:58:46;;;;;;;322.58;159.18;;;16.20;99.90;;;;;;5022724;28;20527;-52
2022/10/06 07:01:14;;;;;;;312.58;153.77;;;16.20;1.00;;;;;;5027645;28;20219;-53
2022/10/06 07:03:40;;;;;;;324.27;161.67;;;;;;;;;;5025889;28;20629;-52
2022/10/06 07:06:11;;;;;;;305.47;148.53;;;16.00;99.90;;;;;;5025012;28;20192;-51
2022/10/06 07:08:42;;;;;;;315.87;155.70;;;16.10;1.00;;;;;;5026962;28;20683;-53
2022/10/06 07:11:13;;;;;;;454.00;199.00;;;16.20;1.00;;;;;;5018502;28;20208;-53
2022/10/06 07:13:39;;;;;;;369.97;169.20;;;16.40;99.90;;;;;;5007198;28;20212;-55
2022/10/06 07:27:04;;;;;;;331.03;163.47;;;16.10;1.00;;;;;;5013457;28;20223;-54
2022/10/06 07:29:30;;;;;;;361.63;181.57;;;16.20;99.90;;;;;;5007986;28;20204;-54
2022/10/06 07:31:55;;;;;;;373.23;185.23;;;16.30;1.00;;;;;;4998715;28;20737;-54
2022/10/06 07:34:21;;;;;;;508.37;246.20;;;16.20;1.00;;;;;;4996502;28;20238;-54
2022/10/06 07:36:49;;;;;;;371.33;184.37;;;;;;;;;;5000640;28;20556;-55
2022/10/06 07:39:14;;;;;;;486.10;235.40;;;16.20;81.40;;;;;;4997998;28;20181;-54
2022/10/06 07:41:40;;;;;;;342.07;170.63;;;16.50;1.00;;;;;;5006903;28;20224;-54
2022/10/06 07:44:05;;;;;;;399.67;194.97;;;;;;;;;;5005230;28;20300;-54
2022/10/06 07:46:32;;;;;;;392.00;193.60;;;;;;;;;;5004658;28;20561;-55
2022/10/06 07:48:58;;;;;;;382.83;187.90;;;16.40;97.70;;;;;;5000511;28;20248;-54
2022/10/06 07:51:26;;;;;;;360.70;177.60;;;;;;;;;;5010467;28;20557;-53
2022/10/06 07:53:52;;;;;;;396.80;192.57;;;16.30;99.90;;;;;;5002981;28;20397;-54
2022/10/06 07:56:19;;;;;;;392.27;190.03;;;16.20;1.00;;;;;;5003503;28;20228;-55
2022/10/06 07:58:45;;;;;;;409.07;197.07;;;16.10;99.90;;;;;;5005566;28;20209;-53
2022/10/06 08:01:12;;;;;;;336.60;162.00;;;16.20;1.00;;;;;;4998915;28;20232;-53
2022/10/06 08:03:39;;;;;;;446.77;217.80;;;16.10;99.90;;;;;;4996764;28;20179;-53
2022/10/06 08:06:05;;;;;;;435.83;207.90;;;;;;;;;;4995438;28;20596;-54
2022/10/06 08:08:36;;;;;;;356.77;169.47;;;16.30;99.90;;;;;;5013026;28;20255;-53
2022/10/06 08:11:03;;;;;;;395.00;190.30;;;16.30;1.00;;;;;;5011067;28;20270;-54
2022/10/06 08:13:32;;;;;;;380.40;182.13;;;;;;;;;;5022237;28;20298;-52
2022/10/06 08:16:05;;;;;;;326.37;160.73;;;16.20;1.00;;;;;;5008366;28;20299;-54
2022/10/06 08:18:31;;;;;;;356.77;175.47;;;;;;;;;;5017842;28;20319;-52
2022/10/06 08:20:57;;;;;;;357.70;171.85;;;;;;;;;;5018857;28;20292;-53
2022/10/06 08:23:23;;;;;;;333.70;161.45;;;;;;;;;;5018530;28;20346;-53
2022/10/06 08:25:50;;;;;;;333.90;161.50;;;16.20;1.00;;;;;;5025363;28;20204;-54
2022/10/06 08:28:16;;;;;;;346.07;167.30;;;;;;;;;;5033384;28;20235;-53
2022/10/06 08:30:42;;;;;;;334.40;167.27;;;;;;;;;;5022267;28;20176;-54
2022/10/06 08:33:08;;;;;;;357.43;181.67;;;;;;;;;;5024764;28;20184;-54
2022/10/06 08:35:34;;;;;;;406.87;204.33;;;;;;;;;;5024404;28;20212;-54
2022/10/06 08:38:00;;;;;;;334.80;163.03;;;;;;;;;;5027997;28;20215;-53
2022/10/06 08:40:27;;;;;;;299.90;147.75;;;16.30;99.90;;;;;;5017189;28;20815;-54
2022/10/06 08:42:56;;;;;;;313.70;154.63;;;16.10;1.00;;;;;;5026521;28;20172;-54
2022/10/06 08:45:33;;;;;;;381.37;183.00;;;16.20;1.00;;;;;;5020139;28;20510;-54
2022/10/06 08:48:02;;;;;;;326.13;163.53;;;16.40;21.90;;;;;;5017811;28;20220;-55
2022/10/06 08:50:37;;;;;;;362.93;180.73;;;16.30;1.00;;;;;;5022131;28;20719;-54
2022/10/06 08:53:38;;;;;;;333.95;167.32;;;16.30;99.90;;;;;;5023686;28;20718;-54
2022/10/06 08:56:16;;;;;;;318.20;158.00;;;16.40;1.00;;;;;;5026153;28;20239;-54
2022/10/06 08:58:57;;;;;;;320.37;161.93;;;12.90;1.00;;;;;;5019575;28;20226;-55
2022/10/06 09:01:31;;;;;;;342.60;168.80;;;16.80;99.90;;;;;;5017510;28;20247;-54
2022/10/06 09:04:03;;;;;;;442.97;211.37;;;16.60;99.90;;;;;;5013769;28;20671;-54
2022/10/06 09:06:50;;;;;;;368.83;180.27;;;16.70;1.00;;;;;;5013777;28;20680;-53
2022/10/06 09:09:43;;;;;;;354.73;174.77;;;16.70;99.90;;;;;;5021681;28;20235;-54
2022/10/06 09:12:29;;;;;;;352.60;173.33;;;16.80;1.00;;;;;;5006394;28;20343;-53
2022/10/06 09:15:19;;;;;;;397.38;191.63;;;16.90;1.00;;;;;;5018501;28;20582;-54
2022/10/06 09:17:53;;;;;;;312.67;152.83;;;17.00;1.00;;;;;;5015760;28;20742;-54
2022/10/06 09:20:31;;;;;;;329.65;160.70;;;16.90;99.90;;;;;;5018981;28;20226;-55
2022/10/06 09:22:57;;;;;;;359.73;175.73;;;17.00;99.90;;;;;;5016940;28;20542;-54
2022/10/06 09:25:27;;;;;;;345.42;168.82;;;17.10;99.90;;;;;;5025555;28;20227;-53
2022/10/06 09:27:55;;;;;;;336.27;169.82;;;17.10;99.90;;;;;;5023558;28;20429;-54
2022/10/06 09:30:22;;;;;;;341.35;169.52;;;17.10;99.90;;;;;;5023665;28;20247;-55
2022/10/06 09:32:57;;;;;;;373.35;184.30;;;17.00;97.50;;;;;;5020462;28;20247;-54
2022/10/06 09:35:24;;;;;;;441.27;211.45;;;17.20;99.90;;;;;;5007992;28;20303;-54
2022/10/06 09:38:04;;;;;;;350.55;173.43;;;17.10;99.90;;;;;;5001482;28;20316;-54
2022/10/06 09:40:47;;;;;;;579.57;287.60;;;17.10;1.00;;;;;;5006240;28;20214;-53
2022/10/06 09:43:24;;;;;;;481.35;233.32;;;16.90;88.10;;;;;;4991537;28;20520;-53
2022/10/06 09:45:50;;;;;;;379.60;189.20;;;17.10;1.00;;;;;;5004304;28;20928;-54
2022/10/06 09:48:22;;;;;;;402.27;192.55;;;17.20;40.70;;;;;;4993118;28;20226;-53
2022/10/06 09:51:07;;;;;;;398.85;198.15;;;17.20;60.50;;;;;;4998850;28;20209;-54
2022/10/06 09:53:32;;;;;;;468.67;225.57;;;17.10;1.00;;;;;;4999030;28;20236;-54
2022/10/06 09:56:03;;;;;;;396.20;197.20;;;17.10;1.00;;;;;;5008441;28;20951;-55
2022/10/06 09:58:36;;;;;;;485.63;232.75;;;17.10;1.00;;;;;;4994683;28;20250;-55
2022/10/06 10:01:10;;;;;;;394.10;199.80;;;17.30;1.00;;;;;;4993591;28;20277;-54
2022/10/06 10:04:04;;;;;;;423.85;207.25;;;17.50;1.00;;;;;;4995832;28;20249;-53
2022/10/06 10:06:31;;;;;;;375.23;191.33;;;17.50;1.00;;;;;;4999244;28;20693;-54
2022/10/06 10:09:18;;;;;;;391.65;195.75;;;17.30;1.00;;;;;;5007794;28;20351;-54
2022/10/06 10:14:37;;;;;;;363.43;177.80;;;17.00;1.00;;;;;;5019898;28;20266;-53
2022/10/06 10:17:18;;;;;;;346.15;174.25;;;17.00;1.00;;;;;;5010149;28;20215;-54
2022/10/06 10:19:51;;;;;;;440.65;219.82;;;16.90;1.00;;;;;;5004657;28;20223;-54
2022/10/06 10:22:24;;;;;;;411.08;208.68;;;17.20;1.00;;;;;;5006070;28;20311;-55
2022/10/06 10:25:15;;;;;;;456.92;232.23;;;17.10;1.00;;;;;;5006742;28;20203;-53
2022/10/06 10:28:02;;;;;;;500.77;239.77;;;17.30;99.90;;;;;;5010672;28;20192;-54
2022/10/06 10:30:35;;;;;;;333.27;177.27;;;17.50;99.90;;;;;;5041538;23;20240;-67
2022/10/06 10:33:25;;;;;;;316.25;168.82;;;17.40;1.00;;;;;;5007785;28;19940;-66
2022/10/06 10:35:54;;;;;;;327.38;178.38;;;17.40;99.90;;;;;;5025121;28;20215;-66
2022/10/06 10:38:25;;;;;;;360.27;190.02;;;17.50;99.90;;;;;;5024968;28;20339;-66
2022/10/06 10:40:58;;;;;;;369.17;189.75;;;17.40;99.90;;;;;;5004422;28;20270;-67
2022/10/06 10:43:38;;;;;;;338.52;177.45;;;17.40;99.90;;;;;;5024475;28;21018;-66
2022/10/06 10:46:12;;;;;;;340.23;177.25;;;17.30;99.90;;;;;;5024101;28;20208;-67
2022/10/06 10:49:02;;;;;;;343.70;179.18;;;16.60;99.90;;;;;;5023678;28;20222;-67
2022/10/06 10:51:31;;;;;;;333.83;170.27;;;17.60;99.90;;;;;;5009448;28;20295;-67
2022/10/06 10:54:13;;;;;;;331.38;172.95;;;17.70;99.90;;;;;;5026405;28;20697;-67
2022/10/06 10:56:40;;;;;;;347.63;178.13;;;17.80;99.90;;;;;;5007390;28;20347;-67
2022/10/06 10:59:22;;;;;;;334.42;178.32;;;17.90;99.90;;;;;;5006546;28;20685;-67
2022/10/06 11:02:08;;;;;;;337.63;186.65;;;17.90;99.90;;;;;;5006136;28;20769;-67
2022/10/06 11:04:40;;;;;;;350.77;183.60;;;17.80;99.90;;;;;;5003548;28;20217;-67
2022/10/06 11:07:55;;;;;;;327.10;170.75;;;18.10;99.90;;;;;;5006104;28;20228;-66
2022/10/06 11:10:49;;;;;;;333.27;172.45;;;18.00;1.00;;;;;;4906381;29;20307;-66
2022/10/06 11:13:37;;;;;;;344.00;179.30;;;17.90;99.90;;;;;;4885685;29;20705;-67
2022/10/06 11:16:25;;;;;;;336.27;174.23;;;17.90;99.90;;;;;;4982500;28;20312;-67
2022/10/06 11:19:09;;;;;;;347.58;181.05;;;17.90;99.90;;;;;;4993882;28;20188;-67
2022/10/06 11:21:45;;;;;;;348.50;180.82;;;17.80;99.90;;;;;;4999874;28;20212;-67
2022/10/06 11:24:31;;;;;;;340.35;179.10;;;18.10;99.90;;;;;;4999014;28;20308;-66
2022/10/06 11:26:57;;;;;;;347.90;184.15;;;18.10;99.90;;;;;;4995917;28;20651;-66
2022/10/06 11:29:42;;;;;;;363.67;185.57;;;18.20;99.90;;;;;;5000051;28;20232;-65
2022/10/06 11:32:23;;;;;;;375.40;196.85;;;18.30;99.90;;;;;;4996112;28;20239;-66
2022/10/06 11:34:49;;;;;;;346.88;184.45;;;18.50;99.90;;;;;;5001440;28;20721;-65
2022/10/06 11:37:34;;;;;;;352.50;186.23;;;18.60;99.90;;;;;;5007491;28;20212;-66
2022/10/06 11:40:12;;;;;;;372.42;192.68;;;18.50;99.90;;;;;;4997505;28;20212;-66
2022/10/06 11:43:00;;;;;;;396.52;203.73;;;18.70;99.90;;;;;;4992351;28;20259;-65
2022/10/06 11:46:03;;;;;;;389.30;197.65;;;18.70;99.90;;;;;;4990779;28;20272;-66
2022/10/06 11:48:30;;;;;;;390.48;201.38;;;18.90;99.90;;;;;;4993565;28;20784;-66
2022/10/06 11:51:16;;;;;;;369.33;191.90;;;18.90;99.90;;;;;;4989289;28;20228;-65
2022/10/06 11:53:45;;;;;;;413.05;207.85;;;18.90;99.90;;;;;;4989439;28;20216;-65
2022/10/06 11:56:17;;;;;;;460.63;230.13;;;19.10;99.90;;;;;;4985550;28;20291;-65
2022/10/06 11:58:51;;;;;;;447.02;217.88;;;19.10;99.90;;;;;;4989270;28;20275;-65
2022/10/06 12:01:38;;;;;;;396.88;198.25;;;19.10;99.90;;;;;;4989620;28;20217;-65
2022/10/06 12:04:04;;;;;;;444.10;220.57;;;;;;;;;;4992343;28;20295;-65
2022/10/06 12:06:44;;;;;;;431.30;217.32;;;19.40;70.40;;;;;;4988759;28;20457;-65
2022/10/06 12:09:29;;;;;;;423.50;213.80;;;19.40;58.40;;;;;;4986451;28;20865;-64
2022/10/06 12:11:59;;;;;;;417.80;210.18;;;19.30;49.60;;;;;;4990571;28;20510;-65
2022/10/06 12:14:25;;;;;;;503.95;238.32;;;;;;;;;;4985193;28;20209;-65
2022/10/06 12:16:56;;;;;;;417.55;213.63;;;19.70;39.50;;;;;;4986297;28;20217;-64
2022/10/06 12:19:41;;;;;;;440.15;228.80;;;19.90;26.60;;;;;;4984459;28;20213;-65
2022/10/06 12:22:21;;;;;;;427.33;214.95;;;20.10;7.10;;;;;;4989136;28;20226;-65
2022/10/06 12:25:01;;;;;;;457.15;238.13;;;20.00;99.90;;;;;;4985878;28;20207;-65
2022/10/06 12:27:33;;;;;;;406.63;209.38;;;20.00;1.00;;;;;;4990879;28;20212;-65
2022/10/06 12:30:04;;;;;;;416.65;211.23;;;20.10;1.80;;;;;;4987142;28;20526;-67
2022/10/06 12:32:48;;;;;;;429.58;224.98;;;20.30;1.00;;;;;;4982918;28;20195;-67
2022/10/06 12:35:34;;;;;;;413.95;216.48;;;20.60;99.90;;;;;;4988857;28;20224;-68
2022/10/06 12:38:04;;;;;;;424.27;221.23;;;20.80;1.00;;;;;;4988141;28;20220;-65
2022/10/06 12:40:48;;;;;;;427.30;225.18;;;20.80;1.00;;;;;;4993256;28;20221;-65
2022/10/06 12:43:17;;;;;;;411.42;221.43;;;;;;;;;;4990280;28;20213;-66
2022/10/06 12:46:06;;;;;;;439.05;242.00;;;20.60;99.90;;;;;;4998034;28;20745;-66
2022/10/06 12:48:40;;;;;;;405.27;222.73;;;20.20;1.00;;;;;;5001831;28;20231;-64
2022/10/06 12:51:11;;;;;;;407.92;220.68;;;19.90;1.00;;;;;;5001440;28;20237;-64
2022/10/06 12:54:18;;;;;;;427.88;227.50;;;19.70;99.90;;;;;;5000945;28;20295;-67
2022/10/06 12:56:57;;;;;;;502.27;261.08;;;20.00;99.90;;;;;;4955260;28;20255;-67
2022/10/06 12:59:26;;;;;;;445.40;223.18;;;19.70;1.00;;;;;;4982150;28;20643;-67
2022/10/06 13:01:58;;;;;;;438.75;228.80;;;19.70;99.90;;;;;;4984150;28;20216;-66
2022/10/06 13:04:43;;;;;;;422.10;221.07;;;19.60;1.00;;;;;;4991164;28;20257;-66
2022/10/06 13:07:19;;;;;;;412.73;223.98;;;19.80;1.00;;;;;;4989860;28;20237;-66